createdAt,value
2018-08-23T00:00:37.285Z,6.07
2018-08-23T00:03:40.647Z,6.20
2018-08-23T00:06:49.647Z,5.90
2018-08-23T00:09:54.043Z,6.17
2018-08-23T00:12:58.307Z,6.37
2018-08-23T00:16:01.544Z,6.03
2018-08-23T00:19:05.183Z,6.00
2018-08-23T00:22:08.531Z,5.70
2018-08-23T00:25:11.816Z,6.30
2018-08-23T00:28:15.104Z,6.03
2018-08-23T00:31:18.450Z,6.30
2018-08-23T00:34:23.796Z,6.40
2018-08-23T00:37:27.096Z,5.73
2018-08-23T00:40:31.025Z,6.10
2018-08-23T00:43:34.260Z,5.93
2018-08-23T00:46:37.548Z,6.23
2018-08-23T00:49:40.872Z,5.70
2018-08-23T00:52:46.327Z,5.93
2018-08-23T00:55:58.550Z,6.00
2018-08-23T00:59:02.762Z,5.87
2018-08-23T01:02:08.210Z,6.50
2018-08-23T01:05:12.544Z,6.10
2018-08-23T01:08:19.968Z,6.23
2018-08-23T01:11:24.632Z,5.83
2018-08-23T01:14:27.859Z,5.70
2018-08-23T01:17:31.130Z,5.77
2018-08-23T01:20:34.315Z,6.20
2018-08-23T01:23:37.965Z,6.07
2018-08-23T01:26:41.233Z,5.90
2018-08-23T01:29:44.410Z,6.13
2018-08-23T01:32:47.716Z,5.87
2018-08-23T01:35:52.518Z,6.20
2018-08-23T01:38:55.743Z,6.17
2018-08-23T01:41:59.100Z,5.93
2018-08-23T01:45:04.637Z,6.23
2018-08-23T01:48:09.048Z,6.20
2018-08-23T01:51:12.339Z,6.60
2018-08-23T01:54:15.760Z,6.10
2018-08-23T01:57:23.160Z,6.27
2018-08-23T02:00:28.693Z,6.47
2018-08-23T02:03:31.938Z,6.73
2018-08-23T02:06:36.196Z,6.73
2018-08-23T02:09:39.492Z,6.13
2018-08-23T02:12:48.059Z,6.30
2018-08-23T02:15:52.003Z,5.90
2018-08-23T02:18:55.301Z,6.40
2018-08-23T02:21:58.610Z,6.13
2018-08-23T02:25:01.793Z,6.23
2018-08-23T02:28:12.080Z,6.33
2018-08-23T02:31:15.616Z,6.33
2018-08-23T02:34:19.046Z,6.07
2018-08-23T02:37:23.482Z,6.60
2018-08-23T02:40:28.427Z,6.40
2018-08-23T02:43:31.647Z,7.03
2018-08-23T02:46:35.473Z,7.10
2018-08-23T02:49:38.770Z,6.40
2018-08-23T02:52:42.024Z,6.37
2018-08-23T02:55:49.459Z,6.77
2018-08-23T02:59:00.642Z,6.30
2018-08-23T03:02:10.914Z,7.00
2018-08-23T03:05:15.275Z,7.30
2018-08-23T03:08:28.689Z,6.87
2018-08-23T03:11:35.329Z,7.43
2018-08-23T03:14:39.133Z,6.57
2018-08-23T03:17:47.560Z,6.67
2018-08-23T03:21:01.832Z,6.67
2018-08-23T03:24:06.198Z,6.90
2018-08-23T03:27:09.479Z,6.60
2018-08-23T03:30:13.819Z,6.80
2018-08-23T03:33:17.317Z,6.73
2018-08-23T03:36:20.749Z,6.73
2018-08-23T03:39:24.245Z,7.00
2018-08-23T03:42:27.847Z,6.73
2018-08-23T03:45:31.102Z,7.30
2018-08-23T03:48:34.375Z,6.73
2018-08-23T03:51:37.852Z,6.97
2018-08-23T03:54:41.116Z,6.87
2018-08-23T03:57:49.798Z,7.17
2018-08-23T04:01:01.600Z,7.37
2018-08-23T04:04:04.859Z,7.10
2018-08-23T04:07:08.145Z,7.30
2018-08-23T04:10:11.475Z,6.50
2018-08-23T04:13:14.781Z,7.87
2018-08-23T04:16:25.060Z,7.07
2018-08-23T04:19:29.235Z,7.20
2018-08-23T04:22:32.500Z,6.67
2018-08-23T04:25:35.654Z,7.27
2018-08-23T04:28:40.103Z,7.30
2018-08-23T04:31:43.483Z,6.83
2018-08-23T04:34:46.723Z,6.63
2018-08-23T04:37:50.559Z,7.10
2018-08-23T04:40:59.799Z,7.70
2018-08-23T04:44:12.447Z,7.47
2018-08-23T04:47:15.903Z,6.93
2018-08-23T04:50:19.542Z,8.17
2018-08-23T04:53:23.804Z,8.90
2018-08-23T04:56:27.161Z,10.40
2018-08-23T04:59:30.502Z,10.20
2018-08-23T05:02:33.974Z,10.77
2018-08-23T05:05:37.443Z,10.00
2018-08-23T05:08:41.035Z,10.60
2018-08-23T05:11:44.602Z,10.17
2018-08-23T05:14:47.977Z,9.00
2018-08-23T05:17:52.298Z,8.33
2018-08-23T05:20:55.621Z,8.00
2018-08-23T05:24:03.303Z,8.47
2018-08-23T05:27:06.489Z,8.50
2018-08-23T05:30:09.759Z,9.00
2018-08-23T05:33:13.982Z,8.60
2018-08-23T05:36:17.795Z,9.17
2018-08-23T05:39:22.926Z,10.30
2018-08-23T05:42:38.194Z,10.33
2018-08-23T05:45:48.181Z,10.50
2018-08-23T05:48:51.966Z,10.70
2018-08-23T05:51:56.968Z,10.93
2018-08-23T05:55:00.778Z,9.97
2018-08-23T05:58:21.944Z,10.07
2018-08-23T06:01:25.382Z,10.63
2018-08-23T06:04:39.334Z,10.07
2018-08-23T06:07:42.682Z,9.57
2018-08-23T06:10:49.554Z,10.17
2018-08-23T06:13:53.791Z,9.10
2018-08-23T06:16:58.609Z,9.27
2018-08-23T06:20:01.911Z,9.00
2018-08-23T06:23:05.324Z,9.70
2018-08-23T06:26:08.676Z,9.90
2018-08-23T06:29:16.149Z,9.13
2018-08-23T06:32:19.499Z,9.87
2018-08-23T06:35:24.503Z,9.90
2018-08-23T06:38:27.793Z,9.47
2018-08-23T06:41:31.144Z,10.00
2018-08-23T06:44:41.320Z,9.67
2018-08-23T06:47:49.768Z,9.67
2018-08-23T06:50:56.092Z,9.20
2018-08-23T06:54:01.445Z,8.97
2018-08-23T06:57:04.740Z,8.30
2018-08-23T07:00:08.205Z,9.30
2018-08-23T07:03:11.540Z,9.37
2018-08-23T07:06:14.884Z,8.70
2018-08-23T07:09:18.826Z,8.90
2018-08-23T07:12:22.915Z,8.70
2018-08-23T07:15:26.155Z,8.90
2018-08-23T07:18:31.109Z,9.00
2018-08-23T07:21:34.417Z,8.80
2018-08-23T07:24:41.589Z,8.40
2018-08-23T07:27:45.457Z,8.60
2018-08-23T07:30:49.862Z,7.63
2018-08-23T07:33:54.896Z,7.53
2018-08-23T07:37:00.100Z,8.83
2018-08-23T07:40:10.945Z,8.53
2018-08-23T07:43:14.276Z,9.03
2018-08-23T07:46:18.739Z,8.50
2018-08-23T07:49:23.530Z,9.90
2018-08-23T07:52:28.211Z,9.33
2018-08-23T07:55:31.359Z,9.50
2018-08-23T07:58:34.608Z,9.03
2018-08-23T08:01:38.858Z,9.60
2018-08-23T08:04:42.063Z,8.60
2018-08-23T08:07:45.514Z,9.10
2018-08-23T08:10:48.941Z,8.63
2018-08-23T08:14:55.727Z,8.53
2018-08-23T08:18:09.127Z,8.83
2018-08-23T08:21:16.844Z,8.90
2018-08-23T08:24:20.139Z,8.33
2018-08-23T08:27:24.884Z,8.90
2018-08-23T08:30:39.891Z,13.93
2018-08-23T08:33:43.166Z,11.90
2018-08-23T08:36:47.757Z,9.00
2018-08-23T08:39:52.132Z,8.30
2018-08-23T08:42:55.299Z,7.73
2018-08-23T08:45:59.762Z,7.07
2018-08-23T08:49:03.302Z,7.03
2018-08-23T08:52:06.615Z,9.00
2018-08-23T08:55:11.935Z,6.50
2018-08-23T08:58:15.325Z,7.23
2018-08-23T09:01:18.912Z,7.03
2018-08-23T09:04:28.054Z,6.83
2018-08-23T09:07:32.865Z,6.97
2018-08-23T09:10:36.136Z,7.47
2018-08-23T09:13:46.428Z,6.97
2018-08-23T09:16:49.760Z,7.00
2018-08-23T09:20:01.670Z,7.53
2018-08-23T09:23:04.913Z,5.73
2018-08-23T09:26:08.278Z,6.70
2018-08-23T09:29:23.252Z,6.00
2018-08-23T09:32:27.543Z,5.97
2018-08-23T09:35:31.943Z,6.00
2018-08-23T09:38:35.188Z,6.70
2018-08-23T09:41:38.544Z,6.20
2018-08-23T09:44:58.063Z,5.20
2018-08-23T09:48:01.356Z,5.50
2018-08-23T09:51:10.836Z,5.60
2018-08-23T09:54:18.321Z,5.37
2018-08-23T09:57:22.771Z,5.17
2018-08-23T10:00:31.771Z,4.60
2018-08-23T10:03:40.455Z,4.63
2018-08-23T10:06:49.349Z,5.10
2018-08-23T10:09:57.909Z,4.87
2018-08-23T10:13:06.571Z,4.67
2018-08-23T10:16:15.264Z,4.40
2018-08-23T10:19:24.900Z,4.80
2018-08-23T10:22:38.188Z,4.47
2018-08-23T10:25:44.771Z,4.60
2018-08-23T10:28:50.048Z,5.20
2018-08-23T10:31:54.255Z,5.50
2018-08-23T10:34:57.529Z,5.53
2018-08-23T10:38:00.882Z,5.20
2018-08-23T10:41:04.619Z,5.37
2018-08-23T10:44:07.922Z,5.60
2018-08-23T10:47:11.215Z,5.70
2018-08-23T10:50:14.612Z,5.77
2018-08-23T10:53:18.454Z,6.07
2018-08-23T10:56:25.418Z,5.57
2018-08-23T10:59:28.602Z,5.80
2018-08-23T11:02:31.911Z,6.03
2018-08-23T11:05:35.757Z,6.03
2018-08-23T11:08:39.637Z,6.53
2018-08-23T11:11:42.972Z,6.30
2018-08-23T11:14:46.323Z,6.37
2018-08-23T11:17:54.996Z,6.13
2018-08-23T11:20:58.356Z,6.10
2018-08-23T11:24:02.072Z,6.47
2018-08-23T11:27:08.334Z,5.80
2018-08-23T11:30:11.622Z,7.80
2018-08-23T11:33:14.894Z,6.07
2018-08-23T11:36:18.157Z,10.17
2018-08-23T11:39:23.004Z,6.70
2018-08-23T11:42:26.211Z,15.00
2018-08-23T11:45:29.563Z,7.43
2018-08-23T11:48:32.819Z,6.57
2018-08-23T11:51:36.403Z,5.57
2018-08-23T11:54:40.684Z,6.17
2018-08-23T11:57:43.953Z,5.10
2018-08-23T12:00:47.227Z,5.80
2018-08-23T12:03:50.462Z,4.63
2018-08-23T12:06:57.454Z,4.60
2018-08-23T12:10:00.867Z,4.13
2018-08-23T12:13:04.102Z,4.20
2018-08-23T12:16:09.389Z,4.43
2018-08-23T12:19:12.707Z,4.33
2018-08-23T12:22:15.978Z,4.87
2018-08-23T12:25:19.307Z,4.10
2018-08-23T12:28:29.943Z,4.10
2018-08-23T12:31:33.298Z,4.13
2018-08-23T12:34:38.328Z,4.73
2018-08-23T12:37:47.232Z,4.23
2018-08-23T12:40:55.706Z,4.40
2018-08-23T12:44:00.616Z,3.47
2018-08-23T12:47:05.443Z,4.20
2018-08-23T12:50:08.697Z,3.90
2018-08-23T12:53:12.328Z,3.13
2018-08-23T12:56:15.512Z,3.57
2018-08-23T12:59:18.756Z,3.53
2018-08-23T13:02:23.391Z,3.13
2018-08-23T13:05:26.583Z,3.63
2018-08-23T13:08:29.896Z,3.00
2018-08-23T13:11:33.220Z,2.93
2018-08-23T13:14:36.495Z,3.20
2018-08-23T13:17:39.789Z,3.03
2018-08-23T13:20:43.087Z,3.40
2018-08-23T13:23:46.800Z,3.40
2018-08-23T13:26:50.139Z,3.10
2018-08-23T13:29:54.661Z,2.97
2018-08-23T13:32:58.527Z,2.87
2018-08-23T13:36:01.954Z,3.27
2018-08-23T13:39:08.208Z,3.37
2018-08-23T13:42:11.475Z,3.07
2018-08-23T13:45:14.652Z,3.27
2018-08-23T13:48:18.032Z,3.07
2018-08-23T13:51:21.271Z,3.00
2018-08-23T13:54:25.289Z,3.13
2018-08-23T13:57:28.681Z,3.67
2018-08-23T14:00:37.924Z,3.13
2018-08-23T14:03:41.444Z,3.17
2018-08-23T14:06:44.804Z,2.97
2018-08-23T14:09:48.032Z,3.07
2018-08-23T14:12:53.486Z,3.67
2018-08-23T14:16:02.232Z,2.90
2018-08-23T14:19:05.492Z,2.93
2018-08-23T14:22:08.952Z,3.00
2018-08-23T14:25:12.398Z,3.10
2018-08-23T14:28:15.584Z,3.00
2018-08-23T14:31:18.991Z,3.03
2018-08-23T14:34:23.068Z,3.00
2018-08-23T14:37:26.721Z,2.93
2018-08-23T14:40:30.066Z,3.07
2018-08-23T14:43:33.354Z,3.47
2018-08-23T14:46:42.127Z,3.00
2018-08-23T14:49:45.390Z,3.60
2018-08-23T14:52:50.129Z,3.40
2018-08-23T14:55:59.320Z,3.40
2018-08-23T14:59:02.632Z,3.50
2018-08-23T15:02:06.189Z,3.23
2018-08-23T15:05:09.504Z,3.70
2018-08-23T15:08:12.933Z,3.23
2018-08-23T15:11:16.072Z,3.20
2018-08-23T15:14:19.545Z,3.27
2018-08-23T15:17:24.733Z,3.60
2018-08-23T15:20:28.032Z,3.33
2018-08-23T15:23:31.396Z,3.30
2018-08-23T15:26:34.800Z,3.10
2018-08-23T15:29:37.954Z,3.30
2018-08-23T15:32:41.222Z,3.10
2018-08-23T15:35:44.559Z,3.00
2018-08-23T15:38:47.788Z,3.30
2018-08-23T15:41:51.210Z,3.20
2018-08-23T15:44:55.478Z,2.97
2018-08-23T15:47:58.819Z,3.13
2018-08-23T15:51:01.912Z,3.20
2018-08-23T15:54:05.697Z,2.90
2018-08-23T15:57:08.947Z,3.13
2018-08-23T16:00:12.235Z,2.93
2018-08-23T16:03:15.995Z,3.07
2018-08-23T16:06:19.679Z,3.43
2018-08-23T16:09:24.488Z,3.27
2018-08-23T16:12:27.779Z,3.03
2018-08-23T16:15:31.500Z,2.90
2018-08-23T16:18:40.303Z,3.00
2018-08-23T16:21:43.699Z,3.33
2018-08-23T16:24:47.126Z,2.90
2018-08-23T16:27:51.109Z,2.93
2018-08-23T16:30:55.665Z,3.00
2018-08-23T16:33:59.304Z,3.03
2018-08-23T16:37:02.720Z,2.90
2018-08-23T16:40:05.960Z,3.30
2018-08-23T16:43:09.160Z,2.90
2018-08-23T16:46:12.508Z,3.20
2018-08-23T16:49:15.733Z,3.00
2018-08-23T16:52:19.043Z,3.30
2018-08-23T16:55:23.600Z,4.17
2018-08-23T16:58:27.931Z,4.03
2018-08-23T17:01:31.238Z,4.13
2018-08-23T17:04:40.025Z,4.57
2018-08-23T17:07:45.557Z,3.57
2018-08-23T17:10:48.958Z,3.90
2018-08-23T17:13:53.326Z,4.00
2018-08-23T17:17:02.431Z,4.30
2018-08-23T17:20:05.767Z,4.43
2018-08-23T17:23:09.058Z,7.43
2018-08-23T17:26:12.347Z,4.80
2018-08-23T17:29:15.746Z,4.30
2018-08-23T17:32:20.035Z,4.20
2018-08-23T17:35:24.623Z,4.40
2018-08-23T17:38:29.197Z,4.20
2018-08-23T17:41:32.367Z,6.23
2018-08-23T17:44:35.715Z,4.30
2018-08-23T17:47:38.985Z,4.60
2018-08-23T17:50:42.319Z,4.27
2018-08-23T17:53:46.646Z,4.37
2018-08-23T17:56:49.926Z,4.00
2018-08-23T17:59:54.325Z,4.20
2018-08-23T18:02:58.066Z,4.70
2018-08-23T18:06:01.364Z,4.43
2018-08-23T18:09:07.655Z,4.77
2018-08-23T18:12:10.807Z,4.37
2018-08-23T18:15:14.108Z,3.50
2018-08-23T18:18:17.415Z,3.90
2018-08-23T18:21:20.700Z,3.80
2018-08-23T18:24:24.708Z,3.70
2018-08-23T18:27:28.011Z,3.17
2018-08-23T18:30:31.518Z,3.10
2018-08-23T18:33:34.908Z,2.87
2018-08-23T18:36:38.085Z,3.20
2018-08-23T18:39:41.292Z,2.80
2018-08-23T18:42:44.409Z,2.93
2018-08-23T18:45:47.712Z,2.67
2018-08-23T18:48:51.187Z,2.83
2018-08-23T18:51:54.377Z,3.10
2018-08-23T18:54:58.424Z,2.73
2018-08-23T18:58:02.656Z,2.83
2018-08-23T19:01:06.226Z,3.07
2018-08-23T19:04:09.556Z,2.90
2018-08-23T19:07:18.219Z,3.00
2018-08-23T19:10:23.525Z,3.03
2018-08-23T19:13:26.729Z,2.80
2018-08-23T19:16:35.447Z,2.80
2018-08-23T19:19:38.729Z,3.17
2018-08-23T19:22:43.259Z,3.30
2018-08-23T19:25:46.541Z,3.47
2018-08-23T19:28:50.041Z,3.60
2018-08-23T19:31:53.401Z,3.50
2018-08-23T19:34:56.712Z,3.23
2018-08-23T19:38:00.000Z,3.27
2018-08-23T19:41:03.226Z,3.70
2018-08-23T19:44:06.478Z,3.07
2018-08-23T19:47:16.059Z,3.60
2018-08-23T19:50:19.371Z,3.03
2018-08-23T19:53:22.683Z,3.40
2018-08-23T19:56:26.111Z,3.50
2018-08-23T19:59:29.492Z,3.47
2018-08-23T20:02:32.868Z,3.33
2018-08-23T20:05:36.287Z,3.60
2018-08-23T20:08:39.516Z,3.70
2018-08-23T20:11:42.864Z,3.87
2018-08-23T20:14:46.186Z,4.00
2018-08-23T20:17:50.163Z,3.67
2018-08-23T20:20:53.565Z,3.60
2018-08-23T20:23:56.785Z,4.00
2018-08-23T20:27:00.040Z,3.67
2018-08-23T20:30:03.337Z,4.00
2018-08-23T20:33:06.859Z,3.77
2018-08-23T20:36:10.192Z,4.13
2018-08-23T20:39:14.698Z,4.20
2018-08-23T20:42:17.893Z,3.87
2018-08-23T20:45:22.247Z,3.80
2018-08-23T20:48:25.671Z,4.20
2018-08-23T20:51:28.905Z,4.10
2018-08-23T20:54:32.119Z,4.27
2018-08-23T20:57:35.364Z,4.37
2018-08-23T21:00:38.571Z,4.40
2018-08-23T21:03:41.949Z,4.90
2018-08-23T21:06:45.202Z,4.80
2018-08-23T21:09:48.641Z,5.20
2018-08-23T21:12:53.120Z,4.67
2018-08-23T21:15:56.403Z,5.03
2018-08-23T21:18:59.885Z,4.10
2018-08-23T21:22:03.218Z,4.23
2018-08-23T21:25:06.496Z,4.27
2018-08-23T21:28:09.797Z,3.80
2018-08-23T21:31:13.158Z,3.73
2018-08-23T21:34:16.575Z,3.30
2018-08-23T21:37:20.432Z,3.83
2018-08-23T21:40:23.934Z,3.77
2018-08-23T21:43:27.287Z,3.73
2018-08-23T21:46:30.691Z,4.33
2018-08-23T21:49:33.962Z,5.00
2018-08-23T21:52:37.400Z,5.43
2018-08-23T21:55:41.109Z,4.80
2018-08-23T21:58:44.742Z,4.50
2018-08-23T22:01:48.112Z,4.33
2018-08-23T22:04:54.731Z,3.97
2018-08-23T22:07:57.985Z,4.33
2018-08-23T22:11:01.510Z,5.17
2018-08-23T22:14:04.923Z,5.23
2018-08-23T22:17:08.159Z,4.60
2018-08-23T22:20:11.544Z,4.80
2018-08-23T22:23:15.787Z,4.70
2018-08-23T22:26:19.071Z,4.50
2018-08-23T22:29:22.933Z,4.50
2018-08-23T22:32:27.203Z,4.27
2018-08-23T22:35:30.536Z,4.50
2018-08-23T22:38:34.031Z,4.10
2018-08-23T22:41:37.480Z,4.40
2018-08-23T22:44:40.880Z,4.20
2018-08-23T22:47:44.104Z,4.13
2018-08-23T22:50:47.560Z,4.33
2018-08-23T22:53:50.829Z,3.90
2018-08-23T22:56:54.204Z,4.17
2018-08-23T22:59:57.625Z,3.70
2018-08-23T23:03:00.971Z,4.03
2018-08-23T23:06:04.196Z,4.00
2018-08-23T23:09:10.224Z,4.30
2018-08-23T23:12:13.523Z,3.67
2018-08-23T23:15:22.120Z,4.27
2018-08-23T23:18:25.436Z,3.70
2018-08-23T23:21:28.875Z,4.10
2018-08-23T23:25:06.859Z,4.00
2018-08-23T23:28:10.358Z,4.07
2018-08-23T23:31:13.636Z,4.33
2018-08-23T23:34:17.148Z,4.77
2018-08-23T23:37:21.666Z,4.37
2018-08-23T23:40:25.937Z,4.80
2018-08-23T23:43:29.162Z,5.07
2018-08-23T23:46:32.492Z,5.13
2018-08-23T23:49:35.830Z,4.87
2018-08-23T23:52:39.035Z,4.97
2018-08-23T23:55:42.223Z,5.10
2018-08-23T23:58:45.564Z,4.47
